sensor_id;sensor_type;location;lat;lon;timestamp;P1;durP1;ratioP1;P2;durP2;ratioP2
28311;SDS011;15572;48.810;9.148;2023-04-29T00:00:04;2.83;;;2.30;;
28311;SDS011;15572;48.810;9.148;2023-04-29T00:05:02;2.30;;;2.10;;
28311;SDS011;15572;48.810;9.148;2023-04-29T00:10:01;3.30;;;2.37;;
28311;SDS011;15572;48.810;9.148;2023-04-29T00:14:58;3.03;;;1.93;;
28311;SDS011;15572;48.810;9.148;2023-04-29T00:19:56;2.97;;;2.10;;
28311;SDS011;15572;48.810;9.148;2023-04-29T00:24:53;4.03;;;2.60;;
28311;SDS011;15572;48.810;9.148;2023-04-29T00:29:51;3.30;;;2.17;;
28311;SDS011;15572;48.810;9.148;2023-04-29T00:34:47;3.83;;;2.20;;
28311;SDS011;15572;48.810;9.148;2023-04-29T00:39:44;4.07;;;2.00;;
28311;SDS011;15572;48.810;9.148;2023-04-29T00:44:40;3.10;;;2.10;;
28311;SDS011;15572;48.810;9.148;2023-04-29T00:49:38;6.03;;;1.93;;
28311;SDS011;15572;48.810;9.148;2023-04-29T00:54:35;3.37;;;2.30;;
28311;SDS011;15572;48.810;9.148;2023-04-29T00:59:32;2.97;;;2.10;;
28311;SDS011;15572;48.810;9.148;2023-04-29T01:04:28;2.30;;;2.10;;
28311;SDS011;15572;48.810;9.148;2023-04-29T01:09:28;4.57;;;2.40;;
28311;SDS011;15572;48.810;9.148;2023-04-29T01:14:46;2.10;;;1.90;;
28311;SDS011;15572;48.810;9.148;2023-04-29T01:19:49;3.27;;;2.27;;
28311;SDS011;15572;48.810;9.148;2023-04-29T01:24:49;2.67;;;2.40;;
28311;SDS011;15572;48.810;9.148;2023-04-29T01:29:47;5.00;;;2.30;;
28311;SDS011;15572;48.810;9.148;2023-04-29T01:34:52;2.80;;;2.30;;
28311;SDS011;15572;48.810;9.148;2023-04-29T01:39:56;3.03;;;2.07;;
28311;SDS011;15572;48.810;9.148;2023-04-29T01:45:01;4.83;;;2.60;;
28311;SDS011;15572;48.810;9.148;2023-04-29T01:50:02;3.53;;;2.53;;
28311;SDS011;15572;48.810;9.148;2023-04-29T01:54:59;3.33;;;2.90;;
28311;SDS011;15572;48.810;9.148;2023-04-29T01:59:57;2.90;;;2.60;;
28311;SDS011;15572;48.810;9.148;2023-04-29T02:04:54;3.40;;;2.77;;
28311;SDS011;15572;48.810;9.148;2023-04-29T02:09:50;3.43;;;2.60;;
28311;SDS011;15572;48.810;9.148;2023-04-29T02:14:50;4.30;;;2.50;;
28311;SDS011;15572;48.810;9.148;2023-04-29T02:19:47;3.17;;;2.57;;
28311;SDS011;15572;48.810;9.148;2023-04-29T02:24:44;2.90;;;2.43;;
28311;SDS011;15572;48.810;9.148;2023-04-29T02:29:40;5.60;;;2.50;;
28311;SDS011;15572;48.810;9.148;2023-04-29T02:34:38;2.83;;;2.63;;
28311;SDS011;15572;48.810;9.148;2023-04-29T02:39:35;3.07;;;2.67;;
28311;SDS011;15572;48.810;9.148;2023-04-29T02:44:31;2.50;;;2.30;;
28311;SDS011;15572;48.810;9.148;2023-04-29T02:49:28;4.17;;;2.27;;
28311;SDS011;15572;48.810;9.148;2023-04-29T02:54:25;3.27;;;2.30;;
28311;SDS011;15572;48.810;9.148;2023-04-29T02:59:22;4.30;;;3.90;;
28311;SDS011;15572;48.810;9.148;2023-04-29T03:04:18;3.67;;;3.20;;
28311;SDS011;15572;48.810;9.148;2023-04-29T03:09:15;3.97;;;3.20;;
28311;SDS011;15572;48.810;9.148;2023-04-29T03:14:13;5.10;;;3.40;;
28311;SDS011;15572;48.810;9.148;2023-04-29T03:19:09;3.40;;;3.10;;
28311;SDS011;15572;48.810;9.148;2023-04-29T03:24:06;5.27;;;2.87;;
28311;SDS011;15572;48.810;9.148;2023-04-29T03:29:02;4.30;;;3.00;;
28311;SDS011;15572;48.810;9.148;2023-04-29T03:34:00;3.40;;;3.00;;
28311;SDS011;15572;48.810;9.148;2023-04-29T03:38:56;2.83;;;2.63;;
28311;SDS011;15572;48.810;9.148;2023-04-29T03:43:53;3.00;;;2.50;;
28311;SDS011;15572;48.810;9.148;2023-04-29T03:48:54;4.63;;;2.60;;
28311;SDS011;15572;48.810;9.148;2023-04-29T03:53:53;4.90;;;2.80;;
28311;SDS011;15572;48.810;9.148;2023-04-29T03:58:50;2.87;;;2.57;;
28311;SDS011;15572;48.810;9.148;2023-04-29T04:03:47;5.37;;;3.80;;
28311;SDS011;15572;48.810;9.148;2023-04-29T04:08:43;4.23;;;3.43;;
28311;SDS011;15572;48.810;9.148;2023-04-29T04:13:41;7.57;;;4.27;;
28311;SDS011;15572;48.810;9.148;2023-04-29T04:18:38;6.63;;;5.27;;
28311;SDS011;15572;48.810;9.148;2023-04-29T04:23:35;6.27;;;4.77;;
28311;SDS011;15572;48.810;9.148;2023-04-29T04:28:34;6.10;;;5.17;;
28311;SDS011;15572;48.810;9.148;2023-04-29T04:33:32;6.77;;;4.80;;
28311;SDS011;15572;48.810;9.148;2023-04-29T04:38:28;6.17;;;5.10;;
28311;SDS011;15572;48.810;9.148;2023-04-29T04:43:26;5.27;;;3.10;;
28311;SDS011;15572;48.810;9.148;2023-04-29T04:48:23;4.40;;;3.30;;
28311;SDS011;15572;48.810;9.148;2023-04-29T04:53:21;3.97;;;3.57;;
28311;SDS011;15572;48.810;9.148;2023-04-29T04:58:17;6.93;;;4.80;;
28311;SDS011;15572;48.810;9.148;2023-04-29T05:03:14;7.00;;;5.40;;
28311;SDS011;15572;48.810;9.148;2023-04-29T05:08:10;6.30;;;5.70;;
28311;SDS011;15572;48.810;9.148;2023-04-29T05:13:08;6.97;;;5.20;;
28311;SDS011;15572;48.810;9.148;2023-04-29T05:18:04;6.53;;;4.73;;
28311;SDS011;15572;48.810;9.148;2023-04-29T05:23:01;5.57;;;4.80;;
28311;SDS011;15572;48.810;9.148;2023-04-29T05:27:58;6.13;;;4.80;;
28311;SDS011;15572;48.810;9.148;2023-04-29T05:32:56;6.17;;;4.90;;
28311;SDS011;15572;48.810;9.148;2023-04-29T05:37:52;8.23;;;5.40;;
28311;SDS011;15572;48.810;9.148;2023-04-29T05:42:49;6.37;;;5.27;;
28311;SDS011;15572;48.810;9.148;2023-04-29T05:47:46;6.13;;;5.53;;
28311;SDS011;15572;48.810;9.148;2023-04-29T05:52:43;6.83;;;5.40;;
28311;SDS011;15572;48.810;9.148;2023-04-29T05:57:40;6.83;;;5.37;;
28311;SDS011;15572;48.810;9.148;2023-04-29T06:02:36;7.00;;;5.43;;
28311;SDS011;15572;48.810;9.148;2023-04-29T06:07:33;9.20;;;5.60;;
28311;SDS011;15572;48.810;9.148;2023-04-29T06:12:31;8.40;;;5.67;;
28311;SDS011;15572;48.810;9.148;2023-04-29T06:17:28;6.97;;;6.07;;
28311;SDS011;15572;48.810;9.148;2023-04-29T06:22:24;7.27;;;5.70;;
28311;SDS011;15572;48.810;9.148;2023-04-29T06:27:20;8.00;;;6.17;;
28311;SDS011;15572;48.810;9.148;2023-04-29T06:32:18;6.60;;;5.70;;
28311;SDS011;15572;48.810;9.148;2023-04-29T06:37:15;6.57;;;5.60;;
28311;SDS011;15572;48.810;9.148;2023-04-29T06:42:11;6.90;;;5.53;;
28311;SDS011;15572;48.810;9.148;2023-04-29T06:47:08;4.50;;;3.83;;
28311;SDS011;15572;48.810;9.148;2023-04-29T06:52:06;4.47;;;4.07;;
28311;SDS011;15572;48.810;9.148;2023-04-29T06:57:02;4.10;;;3.70;;
28311;SDS011;15572;48.810;9.148;2023-04-29T07:01:59;4.10;;;3.70;;
28311;SDS011;15572;48.810;9.148;2023-04-29T07:06:55;4.33;;;3.13;;
28311;SDS011;15572;48.810;9.148;2023-04-29T07:11:54;4.10;;;3.70;;
28311;SDS011;15572;48.810;9.148;2023-04-29T07:16:54;4.47;;;3.27;;
28311;SDS011;15572;48.810;9.148;2023-04-29T07:21:50;3.40;;;2.63;;
28311;SDS011;15572;48.810;9.148;2023-04-29T07:26:46;6.10;;;3.30;;
28311;SDS011;15572;48.810;9.148;2023-04-29T07:31:44;3.63;;;3.10;;
28311;SDS011;15572;48.810;9.148;2023-04-29T07:36:41;4.90;;;3.20;;
28311;SDS011;15572;48.810;9.148;2023-04-29T07:41:37;4.93;;;3.10;;
28311;SDS011;15572;48.810;9.148;2023-04-29T07:46:34;3.43;;;2.97;;
28311;SDS011;15572;48.810;9.148;2023-04-29T07:51:32;4.53;;;3.40;;
28311;SDS011;15572;48.810;9.148;2023-04-29T07:56:28;3.13;;;2.83;;
28311;SDS011;15572;48.810;9.148;2023-04-29T08:01:25;7.87;;;3.50;;
28311;SDS011;15572;48.810;9.148;2023-04-29T08:06:22;5.33;;;4.10;;
28311;SDS011;15572;48.810;9.148;2023-04-29T08:11:20;4.73;;;3.17;;
28311;SDS011;15572;48.810;9.148;2023-04-29T08:16:20;3.47;;;3.17;;
28311;SDS011;15572;48.810;9.148;2023-04-29T08:21:18;4.47;;;3.20;;
28311;SDS011;15572;48.810;9.148;2023-04-29T08:26:15;5.50;;;3.17;;
28311;SDS011;15572;48.810;9.148;2023-04-29T08:31:16;5.10;;;3.67;;
28311;SDS011;15572;48.810;9.148;2023-04-29T08:36:13;4.57;;;3.17;;
28311;SDS011;15572;48.810;9.148;2023-04-29T08:41:09;4.93;;;3.30;;
28311;SDS011;15572;48.810;9.148;2023-04-29T08:46:08;3.30;;;3.00;;
28311;SDS011;15572;48.810;9.148;2023-04-29T08:51:07;4.83;;;3.70;;
28311;SDS011;15572;48.810;9.148;2023-04-29T08:56:08;3.63;;;3.03;;
28311;SDS011;15572;48.810;9.148;2023-04-29T09:01:08;5.93;;;4.10;;
28311;SDS011;15572;48.810;9.148;2023-04-29T09:06:05;4.97;;;3.77;;
28311;SDS011;15572;48.810;9.148;2023-04-29T09:11:07;4.60;;;3.67;;
28311;SDS011;15572;48.810;9.148;2023-04-29T09:16:08;4.37;;;3.97;;
28311;SDS011;15572;48.810;9.148;2023-04-29T09:21:12;4.87;;;4.33;;
28311;SDS011;15572;48.810;9.148;2023-04-29T09:26:10;4.80;;;3.90;;
28311;SDS011;15572;48.810;9.148;2023-04-29T09:31:06;4.07;;;3.63;;
28311;SDS011;15572;48.810;9.148;2023-04-29T09:36:03;3.57;;;3.10;;
28311;SDS011;15572;48.810;9.148;2023-04-29T09:41:00;3.67;;;3.30;;
28311;SDS011;15572;48.810;9.148;2023-04-29T09:46:06;4.50;;;3.47;;
28311;SDS011;15572;48.810;9.148;2023-04-29T09:51:07;5.43;;;3.87;;
28311;SDS011;15572;48.810;9.148;2023-04-29T09:56:05;3.77;;;3.37;;
28311;SDS011;15572;48.810;9.148;2023-04-29T10:01:03;3.53;;;3.20;;
28311;SDS011;15572;48.810;9.148;2023-04-29T10:06:00;4.73;;;3.10;;
28311;SDS011;15572;48.810;9.148;2023-04-29T10:10:58;3.33;;;3.03;;
28311;SDS011;15572;48.810;9.148;2023-04-29T10:15:59;4.63;;;3.43;;
28311;SDS011;15572;48.810;9.148;2023-04-29T10:21:10;3.60;;;3.27;;
28311;SDS011;15572;48.810;9.148;2023-04-29T10:26:09;3.87;;;2.90;;
28311;SDS011;15572;48.810;9.148;2023-04-29T10:31:10;3.63;;;2.90;;
28311;SDS011;15572;48.810;9.148;2023-04-29T10:36:07;4.60;;;3.30;;
28311;SDS011;15572;48.810;9.148;2023-04-29T10:41:07;3.80;;;3.40;;
28311;SDS011;15572;48.810;9.148;2023-04-29T10:46:17;5.87;;;4.17;;
28311;SDS011;15572;48.810;9.148;2023-04-29T10:51:26;4.10;;;3.70;;
28311;SDS011;15572;48.810;9.148;2023-04-29T10:56:34;3.47;;;3.10;;
28311;SDS011;15572;48.810;9.148;2023-04-29T11:01:43;2.50;;;2.30;;
28311;SDS011;15572;48.810;9.148;2023-04-29T11:06:43;3.27;;;2.73;;
28311;SDS011;15572;48.810;9.148;2023-04-29T11:11:42;3.47;;;3.17;;
28311;SDS011;15572;48.810;9.148;2023-04-29T11:16:52;3.70;;;2.50;;
28311;SDS011;15572;48.810;9.148;2023-04-29T11:21:52;2.63;;;2.07;;
28311;SDS011;15572;48.810;9.148;2023-04-29T11:27:03;2.87;;;2.40;;
28311;SDS011;15572;48.810;9.148;2023-04-29T11:32:01;3.07;;;2.77;;
28311;SDS011;15572;48.810;9.148;2023-04-29T11:36:58;3.50;;;3.17;;
28311;SDS011;15572;48.810;9.148;2023-04-29T11:42:01;5.43;;;3.30;;
28311;SDS011;15572;48.810;9.148;2023-04-29T11:47:02;4.23;;;3.73;;
28311;SDS011;15572;48.810;9.148;2023-04-29T11:51:58;4.93;;;4.43;;
28311;SDS011;15572;48.810;9.148;2023-04-29T11:56:57;7.17;;;4.63;;
28311;SDS011;15572;48.810;9.148;2023-04-29T12:01:53;5.67;;;5.07;;
28311;SDS011;15572;48.810;9.148;2023-04-29T12:06:52;6.13;;;4.50;;
28311;SDS011;15572;48.810;9.148;2023-04-29T12:11:48;5.50;;;4.87;;
28311;SDS011;15572;48.810;9.148;2023-04-29T12:16:45;6.60;;;5.10;;
28311;SDS011;15572;48.810;9.148;2023-04-29T12:21:48;6.57;;;5.50;;
28311;SDS011;15572;48.810;9.148;2023-04-29T12:26:48;8.53;;;6.07;;
28311;SDS011;15572;48.810;9.148;2023-04-29T12:31:46;9.13;;;6.33;;
28311;SDS011;15572;48.810;9.148;2023-04-29T12:36:43;8.13;;;6.13;;
28311;SDS011;15572;48.810;9.148;2023-04-29T12:41:40;7.27;;;6.13;;
28311;SDS011;15572;48.810;9.148;2023-04-29T12:46:39;7.22;;;6.40;;
28311;SDS011;15572;48.810;9.148;2023-04-29T12:51:36;9.47;;;7.27;;
28311;SDS011;15572;48.810;9.148;2023-04-29T12:56:33;9.40;;;6.32;;
28311;SDS011;15572;48.810;9.148;2023-04-29T13:01:29;10.85;;;6.82;;
28311;SDS011;15572;48.810;9.148;2023-04-29T13:06:28;8.38;;;6.40;;
28311;SDS011;15572;48.810;9.148;2023-04-29T13:11:24;11.43;;;6.50;;
28311;SDS011;15572;48.810;9.148;2023-04-29T13:16:21;9.32;;;7.00;;
28311;SDS011;15572;48.810;9.148;2023-04-29T13:21:18;9.60;;;6.47;;
28311;SDS011;15572;48.810;9.148;2023-04-29T13:26:16;8.18;;;6.50;;
28311;SDS011;15572;48.810;9.148;2023-04-29T13:31:13;9.68;;;6.88;;
28311;SDS011;15572;48.810;9.148;2023-04-29T13:36:09;8.00;;;6.35;;
28311;SDS011;15572;48.810;9.148;2023-04-29T13:41:06;10.70;;;7.32;;
28311;SDS011;15572;48.810;9.148;2023-04-29T13:46:04;8.70;;;7.53;;
28311;SDS011;15572;48.810;9.148;2023-04-29T13:51:02;12.32;;;8.00;;
28311;SDS011;15572;48.810;9.148;2023-04-29T13:55:58;10.73;;;8.07;;
28311;SDS011;15572;48.810;9.148;2023-04-29T14:00:55;10.17;;;7.20;;
28311;SDS011;15572;48.810;9.148;2023-04-29T14:05:53;9.90;;;7.50;;
28311;SDS011;15572;48.810;9.148;2023-04-29T14:10:49;11.87;;;7.93;;
28311;SDS011;15572;48.810;9.148;2023-04-29T14:15:45;9.93;;;7.17;;
28311;SDS011;15572;48.810;9.148;2023-04-29T14:20:42;9.10;;;6.90;;
28311;SDS011;15572;48.810;9.148;2023-04-29T14:25:40;11.33;;;7.77;;
28311;SDS011;15572;48.810;9.148;2023-04-29T14:30:37;11.43;;;7.97;;
28311;SDS011;15572;48.810;9.148;2023-04-29T14:35:33;12.73;;;8.23;;
28311;SDS011;15572;48.810;9.148;2023-04-29T14:40:30;9.73;;;7.83;;
28311;SDS011;15572;48.810;9.148;2023-04-29T14:45:27;9.87;;;7.80;;
28311;SDS011;15572;48.810;9.148;2023-04-29T14:50:24;12.00;;;7.43;;
28311;SDS011;15572;48.810;9.148;2023-04-29T14:55:21;10.23;;;7.83;;
28311;SDS011;15572;48.810;9.148;2023-04-29T15:00:17;10.23;;;7.57;;
28311;SDS011;15572;48.810;9.148;2023-04-29T15:05:15;9.63;;;7.23;;
28311;SDS011;15572;48.810;9.148;2023-04-29T15:10:12;10.27;;;7.93;;
28311;SDS011;15572;48.810;9.148;2023-04-29T15:15:09;10.00;;;7.73;;
28311;SDS011;15572;48.810;9.148;2023-04-29T15:20:06;10.90;;;7.13;;
28311;SDS011;15572;48.810;9.148;2023-04-29T15:25:05;12.87;;;8.03;;
28311;SDS011;15572;48.810;9.148;2023-04-29T15:30:03;11.77;;;7.87;;
28311;SDS011;15572;48.810;9.148;2023-04-29T15:35:01;11.50;;;8.67;;
28311;SDS011;15572;48.810;9.148;2023-04-29T15:40:00;10.27;;;8.33;;
28311;SDS011;15572;48.810;9.148;2023-04-29T15:44:59;11.67;;;8.27;;
28311;SDS011;15572;48.810;9.148;2023-04-29T15:49:55;11.97;;;8.43;;
28311;SDS011;15572;48.810;9.148;2023-04-29T15:54:51;10.17;;;7.67;;
28311;SDS011;15572;48.810;9.148;2023-04-29T15:59:48;11.43;;;7.13;;
28311;SDS011;15572;48.810;9.148;2023-04-29T16:04:46;9.63;;;7.63;;
28311;SDS011;15572;48.810;9.148;2023-04-29T16:09:42;9.50;;;7.37;;
28311;SDS011;15572;48.810;9.148;2023-04-29T16:14:39;14.90;;;8.10;;
28311;SDS011;15572;48.810;9.148;2023-04-29T16:19:36;10.10;;;7.10;;
28311;SDS011;15572;48.810;9.148;2023-04-29T16:24:34;8.13;;;6.27;;
28311;SDS011;15572;48.810;9.148;2023-04-29T16:29:30;8.30;;;6.20;;
28311;SDS011;15572;48.810;9.148;2023-04-29T16:34:27;7.93;;;6.43;;
28311;SDS011;15572;48.810;9.148;2023-04-29T16:39:23;8.87;;;6.20;;
28311;SDS011;15572;48.810;9.148;2023-04-29T16:44:21;7.00;;;6.20;;
28311;SDS011;15572;48.810;9.148;2023-04-29T16:49:18;8.07;;;6.50;;
28311;SDS011;15572;48.810;9.148;2023-04-29T16:54:20;9.73;;;6.60;;
28311;SDS011;15572;48.810;9.148;2023-04-29T16:59:16;9.77;;;5.87;;
28311;SDS011;15572;48.810;9.148;2023-04-29T17:04:14;7.27;;;5.63;;
28311;SDS011;15572;48.810;9.148;2023-04-29T17:09:11;6.90;;;5.63;;
28311;SDS011;15572;48.810;9.148;2023-04-29T17:14:07;7.80;;;5.60;;
28311;SDS011;15572;48.810;9.148;2023-04-29T17:19:04;7.47;;;5.67;;
28311;SDS011;15572;48.810;9.148;2023-04-29T17:24:02;9.17;;;6.20;;
28311;SDS011;15572;48.810;9.148;2023-04-29T17:28:58;9.03;;;6.10;;
28311;SDS011;15572;48.810;9.148;2023-04-29T17:33:55;7.47;;;5.83;;
28311;SDS011;15572;48.810;9.148;2023-04-29T17:38:59;9.57;;;6.93;;
28311;SDS011;15572;48.810;9.148;2023-04-29T17:49:55;6.23;;;4.90;;
28311;SDS011;15572;48.810;9.148;2023-04-29T17:54:52;7.90;;;5.53;;
28311;SDS011;15572;48.810;9.148;2023-04-29T17:59:49;7.83;;;5.90;;
28311;SDS011;15572;48.810;9.148;2023-04-29T18:04:45;5.63;;;5.03;;
28311;SDS011;15572;48.810;9.148;2023-04-29T18:09:43;6.50;;;5.20;;
28311;SDS011;15572;48.810;9.148;2023-04-29T18:14:40;7.20;;;5.60;;
28311;SDS011;15572;48.810;9.148;2023-04-29T18:19:36;11.70;;;6.90;;
28311;SDS011;15572;48.810;9.148;2023-04-29T18:24:32;9.13;;;7.10;;
28311;SDS011;15572;48.810;9.148;2023-04-29T18:29:30;8.57;;;6.33;;
28311;SDS011;15572;48.810;9.148;2023-04-29T18:34:27;8.20;;;6.50;;
28311;SDS011;15572;48.810;9.148;2023-04-29T18:39:23;8.67;;;5.90;;
28311;SDS011;15572;48.810;9.148;2023-04-29T18:44:20;8.47;;;5.90;;
28311;SDS011;15572;48.810;9.148;2023-04-29T18:49:18;6.77;;;5.27;;
28311;SDS011;15572;48.810;9.148;2023-04-29T18:54:14;6.83;;;5.73;;
28311;SDS011;15572;48.810;9.148;2023-04-29T18:59:12;9.90;;;6.50;;
28311;SDS011;15572;48.810;9.148;2023-04-29T19:04:12;7.83;;;6.57;;
28311;SDS011;15572;48.810;9.148;2023-04-29T19:09:10;8.30;;;6.40;;
28311;SDS011;15572;48.810;9.148;2023-04-29T19:14:07;9.23;;;7.30;;
28311;SDS011;15572;48.810;9.148;2023-04-29T19:19:04;10.50;;;7.23;;
28311;SDS011;15572;48.810;9.148;2023-04-29T19:24:00;8.37;;;6.60;;
28311;SDS011;15572;48.810;9.148;2023-04-29T19:28:58;9.30;;;7.03;;
28311;SDS011;15572;48.810;9.148;2023-04-29T19:33:55;10.20;;;7.80;;
28311;SDS011;15572;48.810;9.148;2023-04-29T19:38:52;10.10;;;7.53;;
28311;SDS011;15572;48.810;9.148;2023-04-29T19:43:48;12.10;;;8.87;;
28311;SDS011;15572;48.810;9.148;2023-04-29T19:48:46;10.53;;;8.13;;
28311;SDS011;15572;48.810;9.148;2023-04-29T19:53:43;10.37;;;7.60;;
28311;SDS011;15572;48.810;9.148;2023-04-29T19:58:39;10.23;;;7.43;;
28311;SDS011;15572;48.810;9.148;2023-04-29T20:03:36;10.07;;;7.73;;
28311;SDS011;15572;48.810;9.148;2023-04-29T20:08:34;9.87;;;7.63;;
28311;SDS011;15572;48.810;9.148;2023-04-29T20:13:31;11.20;;;7.87;;
28311;SDS011;15572;48.810;9.148;2023-04-29T20:18:27;11.67;;;8.57;;
28311;SDS011;15572;48.810;9.148;2023-04-29T20:23:24;10.60;;;8.10;;
28311;SDS011;15572;48.810;9.148;2023-04-29T20:28:22;11.03;;;8.40;;
28311;SDS011;15572;48.810;9.148;2023-04-29T20:33:19;11.10;;;8.67;;
28311;SDS011;15572;48.810;9.148;2023-04-29T20:38:15;12.20;;;9.00;;
28311;SDS011;15572;48.810;9.148;2023-04-29T20:43:11;12.57;;;9.17;;
28311;SDS011;15572;48.810;9.148;2023-04-29T20:48:09;12.63;;;9.00;;
28311;SDS011;15572;48.810;9.148;2023-04-29T20:58:58;11.57;;;8.30;;
28311;SDS011;15572;48.810;9.148;2023-04-29T21:04:03;13.17;;;9.30;;
28311;SDS011;15572;48.810;9.148;2023-04-29T21:09:04;12.57;;;9.13;;
28311;SDS011;15572;48.810;9.148;2023-04-29T21:19:14;12.37;;;9.87;;
28311;SDS011;15572;48.810;9.148;2023-04-29T21:24:10;12.93;;;8.97;;
28311;SDS011;15572;48.810;9.148;2023-04-29T21:29:09;12.33;;;10.30;;
28311;SDS011;15572;48.810;9.148;2023-04-29T21:34:05;12.07;;;9.50;;
28311;SDS011;15572;48.810;9.148;2023-04-29T21:39:03;14.67;;;10.43;;
28311;SDS011;15572;48.810;9.148;2023-04-29T21:44:00;12.00;;;9.00;;
28311;SDS011;15572;48.810;9.148;2023-04-29T21:48:57;14.40;;;10.00;;
28311;SDS011;15572;48.810;9.148;2023-04-29T21:53:54;10.97;;;8.47;;
28311;SDS011;15572;48.810;9.148;2023-04-29T22:03:49;9.83;;;7.53;;
28311;SDS011;15572;48.810;9.148;2023-04-29T22:08:46;9.53;;;7.23;;
28311;SDS011;15572;48.810;9.148;2023-04-29T22:13:42;8.70;;;6.43;;
28311;SDS011;15572;48.810;9.148;2023-04-29T22:18:40;10.50;;;6.87;;
28311;SDS011;15572;48.810;9.148;2023-04-29T22:23:37;6.77;;;5.97;;
28311;SDS011;15572;48.810;9.148;2023-04-29T22:28:33;7.70;;;5.60;;
28311;SDS011;15572;48.810;9.148;2023-04-29T22:33:32;7.10;;;5.70;;
28311;SDS011;15572;48.810;9.148;2023-04-29T22:38:30;6.77;;;5.43;;
28311;SDS011;15572;48.810;9.148;2023-04-29T22:43:31;7.07;;;5.33;;
28311;SDS011;15572;48.810;9.148;2023-04-29T22:48:28;7.07;;;5.67;;
28311;SDS011;15572;48.810;9.148;2023-04-29T22:53:25;7.57;;;5.80;;
28311;SDS011;15572;48.810;9.148;2023-04-29T22:58:24;7.90;;;5.67;;
28311;SDS011;15572;48.810;9.148;2023-04-29T23:03:21;6.53;;;5.47;;
28311;SDS011;15572;48.810;9.148;2023-04-29T23:08:18;7.27;;;5.70;;
28311;SDS011;15572;48.810;9.148;2023-04-29T23:13:14;5.93;;;5.10;;
28311;SDS011;15572;48.810;9.148;2023-04-29T23:18:12;7.77;;;5.90;;
28311;SDS011;15572;48.810;9.148;2023-04-29T23:23:09;7.07;;;5.70;;
28311;SDS011;15572;48.810;9.148;2023-04-29T23:28:05;6.00;;;5.40;;
28311;SDS011;15572;48.810;9.148;2023-04-29T23:33:02;7.17;;;5.40;;
28311;SDS011;15572;48.810;9.148;2023-04-29T23:38:00;6.43;;;5.30;;
28311;SDS011;15572;48.810;9.148;2023-04-29T23:42:56;6.53;;;5.60;;
28311;SDS011;15572;48.810;9.148;2023-04-29T23:47:53;7.53;;;5.80;;
28311;SDS011;15572;48.810;9.148;2023-04-29T23:52:49;8.10;;;5.93;;
28311;SDS011;15572;48.810;9.148;2023-04-29T23:57:47;7.60;;;5.57;;
